Terminal Aerodrome Forecast
Issued by NWS Denver/Boulder, CO

Home | Current Version | Previous Version | Text Only | Print | Product List | Glossary On
Versions: 1 2 3 4 5 6 7 8 9 10 11 12 13 14 15 16 17 18 19 20 21 22 23 24 25 26 27 28 29 30 31 32 33 34 35 36 37 38 39
000
FTUS45 KBOU 241738
TAFDEN
TAF
KDEN 241738Z 2418/2524 34007KT P6SM SCT035 BKN050
     FM242000 04011KT P6SM SCT050 BKN080
     FM250100 12011KT P6SM BKN050
     FM250600 15010KT P6SM SCT040 BKN070
     FM250900 18008KT P6SM SCT070 SCT120
     FM251500 03006KT P6SM SCT040 BKN060=

USA.gov is the U.S. government's official web portal to all federal, state and local government web resources and services.